Terminal Aerodrome Forecast
Issued by NWS

Home | Current Version | Previous Version | Text Only | Print | Product List | Glossary Off
Versions: 1 2 3 4 5 6 7 8 9 10 11 12 13 14 15 16 17 18 19 20 21 22 23 24 25 26 27 28 29

964
FTUS42 KMHX 290926 AAA
TAFISO
TAF AMD
KISO 290926Z 2909/3006 02005KT 5SM BR BKN005
      TEMPO 2909/2911 2SM BR OVC001
     FM291400 01007KT P6SM SCT007 BKN015
     FM291600 01007KT P6SM SCT040
     FM300000 08005KT P6SM SCT040
      AMD LTD TO CLD VIS AND WIND=

USA.gov is the U.S. government's official web portal to all federal, state and local government web resources and services.